createdAt,value
2022-11-27T00:00:18.789Z,1023.57
2022-11-27T00:01:18.779Z,1023.59
2022-11-27T00:02:18.825Z,1023.51
2022-11-27T00:03:18.831Z,1023.44
2022-11-27T00:04:18.835Z,1023.47
2022-11-27T00:05:18.705Z,1023.44
2022-11-27T00:06:18.816Z,1023.45
2022-11-27T00:07:18.726Z,1023.43
2022-11-27T00:08:18.666Z,1023.43
2022-11-27T00:09:18.623Z,1023.45
2022-11-27T00:10:18.667Z,1023.43
2022-11-27T00:11:18.601Z,1023.41
2022-11-27T00:12:18.756Z,1023.42
2022-11-27T00:13:18.600Z,1023.37
2022-11-27T00:14:18.586Z,1023.36
2022-11-27T00:15:18.569Z,1023.36
2022-11-27T00:16:18.620Z,1023.34
2022-11-27T00:17:18.523Z,1023.34
2022-11-27T00:18:18.591Z,1023.37
2022-11-27T00:19:18.512Z,1023.35
2022-11-27T00:20:18.506Z,1023.38
2022-11-27T00:21:18.495Z,1023.40
2022-11-27T00:22:18.510Z,1023.39
2022-11-27T00:23:18.434Z,1023.39
2022-11-27T00:24:18.535Z,1023.38
2022-11-27T00:25:18.444Z,1023.40
2022-11-27T00:26:18.436Z,1023.36
2022-11-27T00:27:18.405Z,1023.36
2022-11-27T00:28:18.398Z,1023.30
2022-11-27T00:29:18.356Z,1023.25
2022-11-27T00:30:18.536Z,1023.20
2022-11-27T00:31:18.377Z,1023.19
2022-11-27T00:32:18.403Z,1023.12
2022-11-27T00:33:18.324Z,1023.15
2022-11-27T00:34:18.327Z,1023.10
2022-11-27T00:35:18.308Z,1023.12
2022-11-27T00:36:18.324Z,1023.15
2022-11-27T00:37:18.304Z,1023.15
2022-11-27T00:38:18.240Z,1023.14
2022-11-27T00:39:18.288Z,1023.14
2022-11-27T00:40:18.207Z,1023.19
2022-11-27T00:41:18.226Z,1023.26
2022-11-27T00:42:18.333Z,1023.27
2022-11-27T00:43:18.199Z,1023.26
2022-11-27T00:44:18.203Z,1023.30
2022-11-27T00:45:18.192Z,1023.29
2022-11-27T00:46:18.152Z,1023.33
2022-11-27T00:47:18.183Z,1023.36
2022-11-27T00:48:18.148Z,1023.33
2022-11-27T00:49:18.134Z,1023.30
2022-11-27T00:50:18.109Z,1023.32
2022-11-27T00:51:18.126Z,1023.32
2022-11-27T00:52:18.057Z,1023.26
2022-11-27T00:53:18.067Z,1023.26
2022-11-27T00:54:20.775Z,1023.25
2022-11-27T00:55:18.033Z,1023.26
2022-11-27T00:56:18.031Z,1023.33
2022-11-27T00:57:18.046Z,1023.27
2022-11-27T00:58:17.972Z,1023.21
2022-11-27T00:59:18.019Z,1023.21
2022-11-27T01:00:17.964Z,1023.21
2022-11-27T01:01:18.025Z,1023.20
2022-11-27T01:02:18.020Z,1023.24
2022-11-27T01:03:17.963Z,1023.20
2022-11-27T01:04:17.926Z,1023.22
2022-11-27T01:05:17.926Z,1023.25
2022-11-27T01:06:17.916Z,1023.22
2022-11-27T01:07:17.959Z,1023.26
2022-11-27T01:08:17.863Z,1023.24
2022-11-27T01:09:17.874Z,1023.24
2022-11-27T01:10:17.799Z,1023.26
2022-11-27T01:11:17.845Z,1023.24
2022-11-27T01:12:17.811Z,1023.32
2022-11-27T01:13:17.802Z,1023.29
2022-11-27T01:14:17.775Z,1023.24
2022-11-27T01:15:17.768Z,1023.30
2022-11-27T01:16:17.890Z,1023.29
2022-11-27T01:17:18.397Z,1023.24
2022-11-27T01:18:17.719Z,1023.34
2022-11-27T01:19:17.754Z,1023.26
2022-11-27T01:20:17.669Z,1023.27
2022-11-27T01:21:17.684Z,1023.26
2022-11-27T01:22:17.668Z,1023.20
2022-11-27T01:23:17.677Z,1023.22
2022-11-27T01:24:17.752Z,1023.23
2022-11-27T01:25:17.629Z,1023.16
2022-11-27T01:26:17.608Z,1023.15
2022-11-27T01:27:17.592Z,1023.12
2022-11-27T01:28:17.585Z,1023.13
2022-11-27T01:29:17.601Z,1023.10
2022-11-27T01:30:17.641Z,1023.07
2022-11-27T01:31:17.634Z,1023.12
2022-11-27T01:32:17.513Z,1023.14
2022-11-27T01:33:17.521Z,1023.09
2022-11-27T01:34:17.522Z,1023.16
2022-11-27T01:35:17.512Z,1023.12
2022-11-27T01:36:17.597Z,1023.13
2022-11-27T01:37:17.497Z,1023.10
2022-11-27T01:38:17.446Z,1023.09
2022-11-27T01:39:17.460Z,1023.06
2022-11-27T01:40:17.393Z,1023.03
2022-11-27T01:41:17.404Z,1023.08
2022-11-27T01:42:17.540Z,1023.08
2022-11-27T01:43:17.409Z,1023.04
2022-11-27T01:44:17.382Z,1023.05
2022-11-27T01:45:17.389Z,1023.11
2022-11-27T01:46:17.510Z,1023.06
2022-11-27T01:47:17.362Z,1023.10
2022-11-27T01:48:17.406Z,1023.10
2022-11-27T01:49:17.316Z,1023.08
2022-11-27T01:50:17.314Z,1023.09
2022-11-27T01:51:17.286Z,1023.13
2022-11-27T01:52:17.261Z,1023.11
2022-11-27T01:53:17.275Z,1023.12
2022-11-27T01:54:17.230Z,1023.12
2022-11-27T01:55:17.227Z,1023.16
2022-11-27T01:56:17.214Z,1023.06
2022-11-27T01:57:17.224Z,1023.11
2022-11-27T01:58:17.159Z,1023.11
2022-11-27T01:59:17.199Z,1023.08
2022-11-27T02:00:17.171Z,1023.09
2022-11-27T02:01:17.188Z,1023.04
2022-11-27T02:02:17.186Z,1023.07
2022-11-27T02:03:17.158Z,1023.08
2022-11-27T02:04:17.127Z,1023.02
2022-11-27T02:05:17.116Z,1022.99
2022-11-27T02:06:17.172Z,1022.98
2022-11-27T02:07:17.136Z,1023.04
2022-11-27T02:08:17.033Z,1023.02
2022-11-27T02:09:17.042Z,1022.98
2022-11-27T02:10:17.018Z,1022.95
2022-11-27T02:11:17.055Z,1022.85
2022-11-27T02:12:17.005Z,1022.92
2022-11-27T02:13:16.989Z,1022.82
2022-11-27T02:14:16.978Z,1022.80
2022-11-27T02:15:16.961Z,1022.75
2022-11-27T02:16:18.315Z,1022.69
2022-11-27T02:17:16.962Z,1022.61
2022-11-27T02:18:16.925Z,1022.57
2022-11-27T02:19:16.932Z,1022.60
2022-11-27T02:20:16.872Z,1022.55
2022-11-27T02:21:16.882Z,1022.55
2022-11-27T02:22:16.861Z,1022.55
2022-11-27T02:23:16.851Z,1022.52
2022-11-27T02:24:16.953Z,1022.47
2022-11-27T02:25:16.861Z,1022.45
2022-11-27T02:26:16.785Z,1022.47
2022-11-27T02:27:16.796Z,1022.49
2022-11-27T02:28:16.784Z,1022.42
2022-11-27T02:29:16.801Z,1022.39
2022-11-27T02:30:16.792Z,1022.41
2022-11-27T02:31:16.847Z,1022.43
2022-11-27T02:32:16.699Z,1022.45
2022-11-27T02:33:16.716Z,1022.47
2022-11-27T02:34:16.716Z,1022.46
2022-11-27T02:35:16.688Z,1022.39
2022-11-27T02:36:16.705Z,1022.38
2022-11-27T02:37:16.704Z,1022.35
2022-11-27T02:38:16.627Z,1022.31
2022-11-27T02:39:16.671Z,1022.27
2022-11-27T02:40:16.599Z,1022.28
2022-11-27T02:41:16.609Z,1022.25
2022-11-27T02:42:16.654Z,1022.21
2022-11-27T02:43:16.592Z,1022.20
2022-11-27T02:44:16.577Z,1022.19
2022-11-27T02:45:16.586Z,1022.17
2022-11-27T02:46:16.552Z,1022.16
2022-11-27T02:47:16.576Z,1022.17
2022-11-27T02:48:16.619Z,1022.21
2022-11-27T02:49:16.511Z,1022.17
2022-11-27T02:50:16.516Z,1022.19
2022-11-27T02:51:16.498Z,1022.18
2022-11-27T02:52:16.499Z,1022.19
2022-11-27T02:53:16.513Z,1022.19
2022-11-27T02:54:16.562Z,1022.15
2022-11-27T02:55:16.470Z,1022.18
2022-11-27T02:56:16.430Z,1022.19
2022-11-27T02:57:16.410Z,1022.17
2022-11-27T02:58:16.397Z,1022.26
2022-11-27T02:59:16.427Z,1022.25
2022-11-27T03:00:16.466Z,1022.29
2022-11-27T03:01:16.425Z,1022.32
2022-11-27T03:02:16.411Z,1022.27
2022-11-27T03:03:16.383Z,1022.32
2022-11-27T03:04:16.310Z,1022.27
2022-11-27T03:05:16.339Z,1022.19
2022-11-27T03:06:16.401Z,1022.20
2022-11-27T03:07:16.366Z,1022.22
2022-11-27T03:08:16.235Z,1022.18
2022-11-27T03:09:16.247Z,1022.20
2022-11-27T03:10:16.241Z,1022.26
2022-11-27T03:11:16.235Z,1022.27
2022-11-27T03:12:16.250Z,1022.26
2022-11-27T03:13:16.239Z,1022.31
2022-11-27T03:14:16.163Z,1022.30
2022-11-27T03:15:16.170Z,1022.30
2022-11-27T03:16:16.206Z,1022.31
2022-11-27T03:17:16.171Z,1022.35
2022-11-27T03:18:16.218Z,1022.36
2022-11-27T03:19:16.152Z,1022.31
2022-11-27T03:20:16.075Z,1022.31
2022-11-27T03:21:16.101Z,1022.33
2022-11-27T03:22:16.097Z,1022.34
2022-11-27T03:23:16.070Z,1022.31
2022-11-27T03:24:16.075Z,1022.30
2022-11-27T03:25:16.079Z,1022.29
2022-11-27T03:26:16.008Z,1022.28
2022-11-27T03:27:16.055Z,1022.19
2022-11-27T03:28:15.979Z,1022.16
2022-11-27T03:29:15.993Z,1022.12
2022-11-27T03:30:16.085Z,1022.11
2022-11-27T03:31:16.037Z,1022.07
2022-11-27T03:32:15.921Z,1022.09
2022-11-27T03:33:15.929Z,1022.04
2022-11-27T03:34:15.927Z,1022.02
2022-11-27T03:35:15.910Z,1022.02
2022-11-27T03:36:16.053Z,1022.03
2022-11-27T03:37:15.907Z,1022.00
2022-11-27T03:38:15.866Z,1021.97
2022-11-27T03:39:15.914Z,1021.97
2022-11-27T03:40:15.851Z,1021.97
2022-11-27T03:41:15.841Z,1021.95
2022-11-27T03:42:15.859Z,1021.92
2022-11-27T03:43:15.795Z,1021.96
2022-11-27T03:44:15.790Z,1021.97
2022-11-27T03:45:15.826Z,1022.00
2022-11-27T03:46:15.780Z,1021.98
2022-11-27T03:47:15.825Z,1021.92
2022-11-27T03:48:15.813Z,1021.95
2022-11-27T03:49:15.734Z,1021.97
2022-11-27T03:50:15.743Z,1021.97
2022-11-27T03:51:15.685Z,1021.98
2022-11-27T03:52:15.672Z,1021.97
2022-11-27T03:53:15.692Z,1021.97
2022-11-27T03:54:15.745Z,1021.95
2022-11-27T03:55:15.670Z,1021.98
2022-11-27T03:56:15.608Z,1021.98
2022-11-27T03:57:15.626Z,1022.01
2022-11-27T03:58:15.602Z,1021.93
2022-11-27T03:59:15.595Z,1021.97
2022-11-27T04:00:15.692Z,1021.90
2022-11-27T04:01:15.593Z,1021.91
2022-11-27T04:02:15.599Z,1021.84
2022-11-27T04:03:15.541Z,1021.84
2022-11-27T04:04:15.560Z,1021.79
2022-11-27T04:05:15.534Z,1021.79
2022-11-27T04:06:15.489Z,1021.80
2022-11-27T04:07:15.548Z,1021.79
2022-11-27T04:08:15.448Z,1021.85
2022-11-27T04:09:15.467Z,1021.83
2022-11-27T04:10:15.466Z,1021.93
2022-11-27T04:11:15.440Z,1021.93
2022-11-27T04:12:15.437Z,1021.96
2022-11-27T04:13:15.437Z,1022.00
2022-11-27T04:14:15.363Z,1021.93
2022-11-27T04:15:15.397Z,1021.90
2022-11-27T04:16:15.370Z,1021.93
2022-11-27T04:17:15.340Z,1021.94
2022-11-27T04:18:15.436Z,1021.86
2022-11-27T04:19:15.347Z,1021.87
2022-11-27T04:20:15.292Z,1021.89
2022-11-27T04:21:15.309Z,1021.84
2022-11-27T04:22:15.287Z,1021.78
2022-11-27T04:23:15.277Z,1021.80
2022-11-27T04:24:15.287Z,1021.77
2022-11-27T04:25:15.269Z,1021.76
2022-11-27T04:26:15.221Z,1021.71
2022-11-27T04:27:15.237Z,1021.66
2022-11-27T04:28:15.183Z,1021.67
2022-11-27T04:29:15.193Z,1021.70
2022-11-27T04:30:15.191Z,1021.66
2022-11-27T04:31:15.166Z,1021.71
2022-11-27T04:32:15.151Z,1021.71
2022-11-27T04:33:15.159Z,1021.67
2022-11-27T04:34:15.094Z,1021.75
2022-11-27T04:35:15.114Z,1021.77
2022-11-27T04:36:15.206Z,1021.76
2022-11-27T04:37:15.101Z,1021.76
2022-11-27T04:38:15.054Z,1021.80
2022-11-27T04:39:15.091Z,1021.79
2022-11-27T04:40:15.044Z,1021.76
2022-11-27T04:41:15.015Z,1021.78
2022-11-27T04:42:15.042Z,1021.82
2022-11-27T04:43:15.008Z,1021.82
2022-11-27T04:44:14.973Z,1021.80
2022-11-27T04:45:14.999Z,1021.78
2022-11-27T04:46:14.984Z,1021.79
2022-11-27T04:47:14.962Z,1021.81
2022-11-27T04:48:14.944Z,1021.78
2022-11-27T04:49:14.917Z,1021.75
2022-11-27T04:50:14.895Z,1021.67
2022-11-27T04:51:14.857Z,1021.61
2022-11-27T04:52:14.912Z,1021.60
2022-11-27T04:53:14.877Z,1021.58
2022-11-27T04:54:14.887Z,1021.54
2022-11-27T04:55:14.837Z,1021.51
2022-11-27T04:56:14.818Z,1021.58
2022-11-27T04:57:14.782Z,1021.60
2022-11-27T04:58:14.833Z,1021.60
2022-11-27T04:59:14.761Z,1021.58
2022-11-27T05:00:14.918Z,1021.61
2022-11-27T05:01:14.795Z,1021.54
2022-11-27T05:02:14.739Z,1021.49
2022-11-27T05:03:14.822Z,1021.48
2022-11-27T05:04:14.710Z,1021.48
2022-11-27T05:05:14.689Z,1021.42
2022-11-27T05:06:14.766Z,1021.41
2022-11-27T05:07:14.684Z,1021.36
2022-11-27T05:08:14.661Z,1021.35
2022-11-27T05:09:14.636Z,1021.32
2022-11-27T05:10:14.658Z,1021.30
2022-11-27T05:11:14.582Z,1021.32
2022-11-27T05:12:14.677Z,1021.32
2022-11-27T05:13:14.607Z,1021.30
2022-11-27T05:14:14.580Z,1021.29
2022-11-27T05:15:14.568Z,1021.34
2022-11-27T05:16:14.639Z,1021.30
2022-11-27T05:17:14.512Z,1021.27
2022-11-27T05:18:14.589Z,1021.24
2022-11-27T05:19:14.517Z,1021.23
2022-11-27T05:20:14.549Z,1021.22
2022-11-27T05:21:14.490Z,1021.23
2022-11-27T05:22:14.475Z,1021.25
2022-11-27T05:23:14.457Z,1021.18
2022-11-27T05:24:14.518Z,1021.18
2022-11-27T05:25:14.436Z,1021.16
2022-11-27T05:26:14.425Z,1021.11
2022-11-27T05:27:14.410Z,1021.16
2022-11-27T05:28:14.423Z,1021.15
2022-11-27T05:29:14.363Z,1021.16
2022-11-27T05:30:14.426Z,1021.13
2022-11-27T05:31:14.433Z,1021.11
2022-11-27T05:32:14.386Z,1021.12
2022-11-27T05:33:14.349Z,1021.07
2022-11-27T05:34:14.337Z,1021.06
2022-11-27T05:35:14.328Z,1021.07
2022-11-27T05:36:14.345Z,1021.02
2022-11-27T05:37:19.243Z,1021.05
2022-11-27T05:38:15.303Z,1021.11
2022-11-27T05:39:14.267Z,1021.03
2022-11-27T05:40:14.236Z,1021.05
2022-11-27T05:41:14.207Z,1021.08
2022-11-27T05:42:14.271Z,1021.01
2022-11-27T05:43:14.171Z,1021.01
2022-11-27T05:44:14.217Z,1021.02
2022-11-27T05:45:14.168Z,1021.00
2022-11-27T05:46:14.230Z,1020.99
2022-11-27T05:47:14.146Z,1020.97
2022-11-27T05:48:14.265Z,1020.99
2022-11-27T05:49:14.099Z,1020.96
2022-11-27T05:50:14.162Z,1020.93
2022-11-27T05:51:14.077Z,1020.87
2022-11-27T05:52:14.113Z,1020.88
2022-11-27T05:53:14.076Z,1020.92
2022-11-27T05:54:14.090Z,1020.90
2022-11-27T05:55:14.038Z,1020.90
2022-11-27T05:56:14.021Z,1020.92
2022-11-27T05:57:13.990Z,1020.91
2022-11-27T05:58:14.027Z,1020.90
2022-11-27T05:59:13.960Z,1020.86
2022-11-27T06:00:14.134Z,1020.85
2022-11-27T06:01:13.979Z,1020.84
2022-11-27T06:02:19.980Z,1020.89
2022-11-27T06:03:14.974Z,1020.87
2022-11-27T06:04:13.922Z,1020.93
2022-11-27T06:05:13.901Z,1020.95
2022-11-27T06:06:14.048Z,1021.01
2022-11-27T06:07:13.865Z,1021.01
2022-11-27T06:08:13.909Z,1020.93
2022-11-27T06:09:13.902Z,1020.95
2022-11-27T06:10:13.852Z,1020.86
2022-11-27T06:11:13.802Z,1020.81
2022-11-27T06:12:13.961Z,1020.78
2022-11-27T06:13:13.811Z,1020.79
2022-11-27T06:14:13.783Z,1020.73
2022-11-27T06:15:13.770Z,1020.84
2022-11-27T06:16:13.829Z,1020.77
2022-11-27T06:17:13.722Z,1020.81
2022-11-27T06:18:13.811Z,1020.72
2022-11-27T06:19:13.704Z,1020.73
2022-11-27T06:20:13.740Z,1020.73
2022-11-27T06:21:13.692Z,1020.74
2022-11-27T06:22:13.685Z,1020.63
2022-11-27T06:23:13.671Z,1020.62
2022-11-27T06:24:13.686Z,1020.56
2022-11-27T06:25:13.616Z,1020.58
2022-11-27T06:26:13.681Z,1020.59
2022-11-27T06:27:13.621Z,1020.56
2022-11-27T06:28:13.598Z,1020.53
2022-11-27T06:29:13.559Z,1020.56
2022-11-27T06:30:13.641Z,1020.57
2022-11-27T06:31:17.711Z,1020.58
2022-11-27T06:32:13.659Z,1020.57
2022-11-27T06:33:13.564Z,1020.53
2022-11-27T06:34:13.537Z,1020.51
2022-11-27T06:35:13.514Z,1020.50
2022-11-27T06:36:13.621Z,1020.49
2022-11-27T06:37:13.758Z,1020.49
2022-11-27T06:38:13.503Z,1020.43
2022-11-27T06:39:13.438Z,1020.36
2022-11-27T06:40:13.482Z,1020.33
2022-11-27T06:41:13.442Z,1020.34
2022-11-27T06:42:13.452Z,1020.29
2022-11-27T06:43:13.389Z,1020.30
2022-11-27T06:44:13.437Z,1020.27
2022-11-27T06:45:13.380Z,1020.28
2022-11-27T06:46:13.481Z,1020.29
2022-11-27T06:47:13.359Z,1020.29
2022-11-27T06:48:13.389Z,1020.26
2022-11-27T06:49:13.305Z,1020.25
2022-11-27T06:50:13.337Z,1020.23
2022-11-27T06:51:13.290Z,1020.32
2022-11-27T06:52:13.335Z,1020.29
2022-11-27T06:53:13.278Z,1020.36
2022-11-27T06:54:13.282Z,1020.40
2022-11-27T06:55:13.248Z,1020.41
2022-11-27T06:56:13.253Z,1020.40
2022-11-27T06:57:13.193Z,1020.42
2022-11-27T06:58:13.267Z,1020.37
2022-11-27T06:59:13.184Z,1020.45
2022-11-27T07:00:13.319Z,1020.42
2022-11-27T07:01:13.240Z,1020.43
2022-11-27T07:02:13.485Z,1020.42
2022-11-27T07:04:34.964Z,1020.37
2022-11-27T07:05:24.146Z,1020.39
2022-11-27T07:06:24.153Z,1020.38
2022-11-27T07:07:24.150Z,1020.35
2022-11-27T07:08:24.097Z,1020.32
2022-11-27T07:09:24.084Z,1020.39
2022-11-27T07:10:24.069Z,1020.41
2022-11-27T07:11:24.060Z,1020.43
2022-11-27T07:12:24.073Z,1020.43
2022-11-27T07:13:24.001Z,1020.42
2022-11-27T07:14:24.045Z,1020.43
2022-11-27T07:15:24.007Z,1020.43
2022-11-27T07:16:24.037Z,1020.43
2022-11-27T07:17:24.022Z,1020.43
2022-11-27T07:18:23.960Z,1020.45
2022-11-27T07:19:24.679Z,1020.41
2022-11-27T07:20:23.966Z,1020.44
2022-11-27T07:21:23.909Z,1020.43
2022-11-27T07:22:23.957Z,1020.31
2022-11-27T07:23:24.095Z,1020.32
2022-11-27T07:24:23.911Z,1020.32
2022-11-27T07:25:23.887Z,1020.34
2022-11-27T07:26:23.891Z,1020.29
2022-11-27T07:27:23.836Z,1020.30
2022-11-27T07:28:23.878Z,1020.25
2022-11-27T07:29:23.948Z,1020.27
2022-11-27T07:30:23.850Z,1020.26
2022-11-27T07:31:23.864Z,1020.23
2022-11-27T07:32:23.826Z,1020.28
2022-11-27T07:33:23.765Z,1020.22
2022-11-27T07:34:23.799Z,1020.20
2022-11-27T07:35:23.880Z,1020.24
2022-11-27T07:36:23.752Z,1020.20
2022-11-27T07:37:23.731Z,1020.23
2022-11-27T07:38:23.713Z,1020.26
2022-11-27T07:39:46.362Z,1020.28
2022-11-27T07:40:24.830Z,1020.27
2022-11-27T07:41:23.653Z,1020.21
2022-11-27T07:42:37.372Z,1020.23
2022-11-27T07:43:24.660Z,1020.22
2022-11-27T07:44:23.635Z,1020.23
2022-11-27T07:45:23.640Z,1020.18
2022-11-27T07:46:23.662Z,1020.18
2022-11-27T07:47:23.602Z,1020.19
2022-11-27T07:48:23.579Z,1020.21
2022-11-27T07:49:23.590Z,1020.21
2022-11-27T07:50:23.556Z,1020.23
2022-11-27T07:51:23.537Z,1020.13
2022-11-27T07:52:23.586Z,1020.18
2022-11-27T07:53:23.479Z,1020.12
2022-11-27T07:54:23.533Z,1020.12
2022-11-27T07:55:23.494Z,1020.15
2022-11-27T07:56:23.476Z,1020.12
2022-11-27T07:57:23.453Z,1020.09
2022-11-27T07:58:23.499Z,1020.10
2022-11-27T07:59:23.421Z,1020.11
2022-11-27T08:00:23.459Z,1020.14
2022-11-27T08:01:23.467Z,1020.12
2022-11-27T08:02:23.418Z,1020.14
2022-11-27T08:03:23.374Z,1020.10
2022-11-27T08:04:23.485Z,1020.04
2022-11-27T08:05:23.389Z,1020.02
2022-11-27T08:06:23.377Z,1019.98
2022-11-27T08:07:23.422Z,1019.96
2022-11-27T08:08:23.329Z,1019.94
2022-11-27T08:09:23.338Z,1019.87
2022-11-27T08:10:23.330Z,1019.90
2022-11-27T08:11:23.266Z,1019.88
2022-11-27T08:12:23.300Z,1019.89
2022-11-27T08:13:23.210Z,1019.85
2022-11-27T08:14:23.265Z,1019.89
2022-11-27T08:15:23.228Z,1019.86
2022-11-27T08:16:23.283Z,1019.89
2022-11-27T08:17:23.202Z,1019.87
2022-11-27T08:18:23.188Z,1019.87
2022-11-27T08:19:23.246Z,1019.88
2022-11-27T08:20:23.165Z,1019.85
2022-11-27T08:21:23.190Z,1019.81
2022-11-27T08:22:23.139Z,1019.79
2022-11-27T08:23:23.105Z,1019.81
2022-11-27T08:24:23.104Z,1019.76
2022-11-27T08:25:23.096Z,1019.80
2022-11-27T08:26:23.088Z,1019.79
2022-11-27T08:27:23.092Z,1019.72
2022-11-27T08:28:23.065Z,1019.77
2022-11-27T08:29:23.073Z,1019.75
2022-11-27T08:30:22.996Z,1019.74
2022-11-27T08:31:23.037Z,1019.75
2022-11-27T08:32:23.003Z,1019.69
2022-11-27T08:33:23.012Z,1019.69
2022-11-27T08:34:22.977Z,1019.71
2022-11-27T08:35:22.958Z,1019.66
2022-11-27T08:36:22.954Z,1019.71
2022-11-27T08:37:22.935Z,1019.66
2022-11-27T08:38:22.914Z,1019.69
2022-11-27T08:39:22.940Z,1019.67
2022-11-27T08:40:23.008Z,1019.63
2022-11-27T08:41:22.913Z,1019.67
2022-11-27T08:42:22.838Z,1019.70
2022-11-27T08:43:22.878Z,1019.66
2022-11-27T08:44:22.924Z,1019.64
2022-11-27T08:45:22.934Z,1019.65
2022-11-27T08:46:22.976Z,1019.69
2022-11-27T08:47:22.852Z,1019.64
2022-11-27T08:48:22.785Z,1019.68
2022-11-27T08:49:22.787Z,1019.62
2022-11-27T08:50:22.816Z,1019.58
2022-11-27T08:51:22.816Z,1019.56
2022-11-27T08:52:22.804Z,1019.56
2022-11-27T08:53:22.758Z,1019.59
2022-11-27T08:54:22.689Z,1019.57
2022-11-27T08:55:22.743Z,1019.51
2022-11-27T08:56:22.712Z,1019.52
2022-11-27T08:57:22.685Z,1019.49
2022-11-27T08:58:22.728Z,1019.45
2022-11-27T08:59:22.679Z,1019.42
2022-11-27T09:00:27.715Z,1019.42
2022-11-27T09:01:23.713Z,1019.42
2022-11-27T09:02:22.592Z,1019.39
2022-11-27T09:03:22.597Z,1019.39
2022-11-27T09:04:22.735Z,1019.40
2022-11-27T09:05:22.613Z,1019.37
2022-11-27T09:06:22.527Z,1019.35
2022-11-27T09:07:22.640Z,1019.38
2022-11-27T09:08:22.532Z,1019.38
2022-11-27T09:09:22.537Z,1019.33
2022-11-27T09:10:22.624Z,1019.33
2022-11-27T09:11:22.533Z,1019.32
2022-11-27T09:12:22.451Z,1019.29
2022-11-27T09:13:22.807Z,1019.26
2022-11-27T09:14:22.430Z,1019.21
2022-11-27T09:15:22.440Z,1019.22
2022-11-27T09:16:22.602Z,1019.15
2022-11-27T09:17:22.412Z,1019.15
2022-11-27T09:18:22.388Z,1019.14
2022-11-27T09:19:22.408Z,1019.15
2022-11-27T09:20:22.376Z,1019.13
2022-11-27T09:21:22.400Z,1019.05
2022-11-27T09:22:22.340Z,1019.10
2022-11-27T09:23:22.346Z,1019.09
2022-11-27T09:24:22.328Z,1019.06
2022-11-27T09:25:22.301Z,1019.05
2022-11-27T09:26:22.291Z,1018.98
2022-11-27T09:27:22.300Z,1018.95
2022-11-27T09:28:23.025Z,1018.99
2022-11-27T09:29:22.277Z,1018.94
2022-11-27T09:30:22.221Z,1018.95
2022-11-27T09:31:22.235Z,1018.94
2022-11-27T09:32:22.284Z,1018.95
2022-11-27T09:33:22.193Z,1018.97
2022-11-27T09:34:22.210Z,1018.96
2022-11-27T09:35:22.239Z,1019.02
2022-11-27T09:36:22.129Z,1019.02
2022-11-27T09:37:22.184Z,1019.01
2022-11-27T09:38:22.132Z,1018.97
2022-11-27T09:39:22.143Z,1018.98
2022-11-27T09:40:22.170Z,1019.02
2022-11-27T09:41:22.120Z,1019.01
2022-11-27T09:42:22.055Z,1019.00
2022-11-27T09:43:22.063Z,1018.98
2022-11-27T09:44:22.072Z,1018.97
2022-11-27T09:45:22.036Z,1018.93
2022-11-27T09:46:22.199Z,1018.92
2022-11-27T09:47:22.042Z,1018.90
2022-11-27T09:48:21.986Z,1018.93
2022-11-27T09:49:22.018Z,1018.91
2022-11-27T09:50:22.029Z,1018.86
2022-11-27T09:51:21.978Z,1018.87
2022-11-27T09:52:21.991Z,1018.92
2022-11-27T09:53:21.956Z,1018.90
2022-11-27T09:54:21.878Z,1018.93
2022-11-27T09:55:22.040Z,1018.96
2022-11-27T09:56:21.896Z,1018.90
2022-11-27T09:57:21.879Z,1018.86
2022-11-27T09:58:22.096Z,1018.88
2022-11-27T09:59:21.873Z,1018.86
2022-11-27T10:00:21.951Z,1018.92
2022-11-27T10:01:21.943Z,1018.93
2022-11-27T10:02:21.917Z,1018.99
2022-11-27T10:03:21.824Z,1019.01
2022-11-27T10:04:21.832Z,1019.00
2022-11-27T10:05:22.556Z,1018.99
2022-11-27T10:06:21.760Z,1018.99
2022-11-27T10:07:21.835Z,1018.98
2022-11-27T10:08:21.692Z,1018.97
2022-11-27T10:09:21.732Z,1018.92
2022-11-27T10:10:21.769Z,1018.93
2022-11-27T10:11:21.739Z,1018.88
2022-11-27T10:12:21.642Z,1018.89
2022-11-27T10:13:21.680Z,1018.89
2022-11-27T10:14:21.923Z,1018.84
2022-11-27T10:15:21.643Z,1018.90
2022-11-27T10:16:21.764Z,1018.91
2022-11-27T10:17:21.606Z,1018.86
2022-11-27T10:18:21.605Z,1018.88
2022-11-27T10:19:21.612Z,1018.94
2022-11-27T10:20:21.538Z,1018.91
2022-11-27T10:21:21.632Z,1018.98
2022-11-27T10:22:21.621Z,1019.00
2022-11-27T10:23:21.533Z,1018.99
2022-11-27T10:24:21.503Z,1019.01
2022-11-27T10:25:21.495Z,1018.98
2022-11-27T10:26:21.483Z,1019.01
2022-11-27T10:27:21.493Z,1018.98
2022-11-27T10:28:21.537Z,1018.99
2022-11-27T10:29:21.464Z,1019.02
2022-11-27T10:30:21.400Z,1018.99
2022-11-27T10:31:21.456Z,1018.96
2022-11-27T10:32:53.660Z,1018.98
2022-11-27T10:33:22.459Z,1018.90
2022-11-27T10:34:21.373Z,1018.90
2022-11-27T10:35:21.393Z,1018.91
2022-11-27T10:36:21.320Z,1018.86
2022-11-27T10:37:21.362Z,1018.90
2022-11-27T10:38:21.313Z,1018.88
2022-11-27T10:39:21.419Z,1018.89
2022-11-27T10:40:21.306Z,1018.89
2022-11-27T10:41:48.215Z,1018.94
2022-11-27T10:42:22.241Z,1018.88
2022-11-27T10:43:21.250Z,1018.83
2022-11-27T10:44:21.237Z,1018.82
2022-11-27T10:45:21.399Z,1018.82
2022-11-27T10:46:21.248Z,1018.73
2022-11-27T10:47:21.227Z,1018.74
2022-11-27T10:48:21.160Z,1018.73
2022-11-27T10:49:21.197Z,1018.68
2022-11-27T10:50:21.138Z,1018.67
2022-11-27T10:51:21.210Z,1018.67
2022-11-27T10:52:21.136Z,1018.64
2022-11-27T10:53:21.144Z,1018.63
2022-11-27T10:54:21.111Z,1018.60
2022-11-27T10:55:21.122Z,1018.57
2022-11-27T10:56:21.363Z,1018.58
2022-11-27T10:57:21.091Z,1018.57
2022-11-27T10:58:21.052Z,1018.58
2022-11-27T10:59:21.063Z,1018.54
2022-11-27T11:00:21.000Z,1018.55
2022-11-27T11:01:21.092Z,1018.54
2022-11-27T11:02:21.332Z,1018.58
2022-11-27T11:03:21.022Z,1018.57
2022-11-27T11:04:38.311Z,1018.61
2022-11-27T11:05:37.758Z,1018.58
2022-11-27T11:06:23.261Z,1018.54
2022-11-27T11:07:21.026Z,1018.52
2022-11-27T11:08:20.899Z,1018.50
2022-11-27T11:09:20.974Z,1018.55
2022-11-27T11:10:20.877Z,1018.48
2022-11-27T11:11:20.889Z,1018.48
2022-11-27T11:12:20.864Z,1018.50
2022-11-27T11:13:20.885Z,1018.48
2022-11-27T11:14:20.841Z,1018.47
2022-11-27T11:15:20.929Z,1018.46
2022-11-27T11:16:24.330Z,1018.42
2022-11-27T11:17:20.861Z,1018.48
2022-11-27T11:18:20.801Z,1018.45
2022-11-27T11:19:20.796Z,1018.43
2022-11-27T11:20:20.768Z,1018.42
2022-11-27T11:21:20.827Z,1018.40
2022-11-27T11:22:20.708Z,1018.40
2022-11-27T11:23:20.710Z,1018.39
2022-11-27T11:24:20.698Z,1018.36
2022-11-27T11:25:20.689Z,1018.36
2022-11-27T11:26:20.677Z,1018.31
2022-11-27T11:27:20.738Z,1018.31
2022-11-27T11:28:20.641Z,1018.31
2022-11-27T11:29:20.659Z,1018.29
2022-11-27T11:30:20.609Z,1018.29
2022-11-27T11:31:20.686Z,1018.30
2022-11-27T11:32:20.633Z,1018.24
2022-11-27T11:33:20.733Z,1018.25
2022-11-27T11:34:20.582Z,1018.20
2022-11-27T11:35:20.637Z,1018.19
2022-11-27T11:36:20.532Z,1018.16
2022-11-27T11:37:20.561Z,1018.14
2022-11-27T11:38:20.532Z,1018.12
2022-11-27T11:39:20.525Z,1018.13
2022-11-27T11:40:20.499Z,1018.11
2022-11-27T11:41:20.512Z,1018.07
2022-11-27T11:42:20.475Z,1018.12
2022-11-27T11:43:20.489Z,1018.06
2022-11-27T11:44:20.419Z,1018.05
2022-11-27T11:45:20.584Z,1018.05
2022-11-27T11:46:21.359Z,1018.01
2022-11-27T11:47:20.431Z,1017.95
2022-11-27T11:48:20.351Z,1017.96
2022-11-27T11:49:20.427Z,1017.95
2022-11-27T11:50:20.351Z,1017.96
2022-11-27T11:51:22.795Z,1017.98
2022-11-27T11:52:21.326Z,1017.98
2022-11-27T11:53:20.323Z,1017.96
2022-11-27T11:54:20.317Z,1017.91
2022-11-27T11:55:20.319Z,1017.92
2022-11-27T11:56:20.239Z,1017.89
2022-11-27T11:57:20.326Z,1017.91
2022-11-27T11:58:20.231Z,1017.85
2022-11-27T11:59:20.236Z,1017.88
2022-11-27T12:00:22.889Z,1017.83
2022-11-27T12:01:28.332Z,1017.78
2022-11-27T12:02:21.345Z,1017.79
2022-11-27T12:03:20.181Z,1017.77
2022-11-27T12:04:20.246Z,1017.80
2022-11-27T12:05:20.434Z,1017.76
2022-11-27T12:06:20.139Z,1017.73